Terminal Aerodrome Forecast
Issued by NWS

Home | Current Version | Previous Version | Text Only | Print | Product List | Glossary On
Versions: 1 2 3 4 5 6 7 8 9 10 11 12
000
FTAK31 PAJN 251700
TAFAPG
TAF
PAPG 251733Z 2518/2618 00000KT 6SM -RA BR FEW012 BKN035
      TEMPO 2518/2520 BKN030
     FM252000 11010KT 6SM -RA BR SCT015 BKN035 OVC050
     FM260200 09003KT 5SM -RA BR SCT020 OVC030
     FM260900 00000KT 3SM -RA BR BKN015 OVC020
     FM261700 07003KT 6SM -RA BR SCT015 OVC035
      AMD LTD TO CLD VIS AND WIND 2606/2615=

USA.gov is the U.S. government's official web portal to all federal, state and local government web resources and services.